Time;durP1;ratioP1;P1;durP2;ratioP2;P2;SDS_P1;SDS_P2;PMS_P1;PMS_P2;Temp;Humidity;BMP_temperature;BMP_pressure;BME280_temperature;BME280_humidity;BME280_pressure;Samples;Min_cycle;Max_cycle;Signal;HPM_P1;HPM_P2
2024/04/04 00:00:30;;;;;;;5.20;2.90;;;;;;;10.74;49.29;99624.02;105813;1253;61225;-71
2024/04/04 00:02:57;;;;;;;5.40;2.60;;;;;;;10.71;49.40;99623.61;105810;1251;61481;-69
2024/04/04 00:05:25;;;;;;;6.60;2.60;;;;;;;10.69;49.46;99620.27;105827;1255;66110;-69
2024/04/04 00:07:52;;;;;;;7.30;2.50;;;;;;;10.69;49.52;99623.13;105953;1256;61344;-68
2024/04/04 00:10:19;;;;;;;5.80;2.30;;;;;;;10.68;49.59;99620.65;105926;1256;63995;-69
2024/04/04 00:12:46;;;;;;;4.50;2.20;;;;;;;10.70;49.54;99621.90;105899;1251;61231;-72
2024/04/04 00:15:13;;;;;;;5.40;2.70;;;;;;;10.72;49.56;99630.20;105857;1254;61249;-68
2024/04/04 00:17:40;;;;;;;4.90;2.50;;;;;;;10.73;49.54;99633.09;105859;1256;65706;-69
2024/04/04 00:20:14;;;;;;;4.20;2.40;;;;;;;10.75;49.60;99630.27;105900;1254;61261;-69
2024/04/04 00:22:43;;;;;;;5.30;2.70;;;;;;;10.76;49.55;99633.66;105762;1254;64047;-68
2024/04/04 00:25:10;;;;;;;4.50;2.60;;;;;;;10.77;49.65;99632.56;105686;1253;61276;-69
2024/04/04 00:27:37;;;;;;;4.90;2.60;;;;;;;10.76;49.83;99630.69;105893;1253;61265;-69
2024/04/04 00:30:04;;;;;;;5.50;2.70;;;;;;;10.76;49.78;99632.98;105637;1259;66041;-68
2024/04/04 00:32:32;;;;;;;4.60;2.60;;;;;;;10.76;49.79;99634.38;105760;1253;61471;-69
2024/04/04 00:34:59;;;;;;;5.00;2.60;;;;;;;10.75;49.86;99627.41;105400;1254;62715;-69
2024/04/04 00:37:26;;;;;;;4.80;2.40;;;;;;;10.77;49.79;99627.82;105639;1253;61290;-69
2024/04/04 00:39:54;;;;;;;5.00;2.60;;;;;;;10.78;49.80;99623.80;105748;1253;63130;-70
2024/04/04 00:42:20;;;;;;;4.70;2.40;;;;;;;10.80;49.74;99620.46;105717;1254;65820;-67
2024/04/04 00:44:47;;;;;;;4.90;2.60;;;;;;;10.81;49.83;99622.09;105893;1256;61296;-69
2024/04/04 00:47:14;;;;;;;3.70;1.90;;;;;;;10.81;49.85;99617.86;105939;1251;63885;-68
2024/04/04 00:49:41;;;;;;;4.80;2.10;;;;;;;10.82;49.77;99614.52;105839;1253;61254;-67
2024/04/04 00:52:09;;;;;;;4.20;1.90;;;;;;;10.83;49.84;99615.23;105815;1253;61337;-67
2024/04/04 00:54:41;;;;;;;4.80;2.00;;;;;;;10.85;49.86;99622.46;105612;1259;65851;-69
2024/04/04 00:57:11;;;;;;;7.00;2.00;;;;;;;10.87;49.87;99616.98;105495;1262;61250;-67
2024/04/04 00:59:38;;;;;;;4.70;2.10;;;;;;;10.90;49.93;99617.27;105639;1253;64015;-68
2024/04/04 01:02:05;;;;;;;4.60;2.00;;;;;;;10.91;49.93;99618.21;105647;1254;61263;-68
2024/04/04 01:04:32;;;;;;;4.20;2.30;;;;;;;10.93;49.95;99617.90;105883;1253;61356;-69
2024/04/04 01:06:59;;;;;;;4.80;2.80;;;;;;;10.93;49.94;99614.14;106006;1256;66022;-68
2024/04/04 01:09:25;;;;;;;6.40;3.40;;;;;;;10.94;50.04;99613.05;105763;1254;61240;-66
2024/04/04 01:11:52;;;;;;;5.70;3.00;;;;;;;10.94;49.99;99614.48;105676;1256;64040;-68
2024/04/04 01:14:21;;;;;;;5.00;2.90;;;;;;;10.92;50.09;99614.79;105550;1259;61232;-68
2024/04/04 01:16:47;;;;;;;4.10;2.60;;;;;;;10.91;50.09;99614.38;105718;1251;61238;-69
2024/04/04 01:19:14;;;;;;;5.10;2.80;;;;;;;10.89;49.99;99613.58;105825;1253;65991;-68
2024/04/04 01:21:41;;;;;;;3.60;2.00;;;;;;;10.89;49.87;99617.11;105613;1251;61375;-69
2024/04/04 01:24:08;;;;;;;3.70;2.40;;;;;;;10.90;49.90;99615.28;106049;1253;64046;-68
2024/04/04 01:26:36;;;;;;;7.60;2.40;;;;;;;10.92;49.85;99620.10;105642;1260;61228;-69
2024/04/04 01:29:03;;;;;;;5.20;2.50;;;;;;;10.93;49.71;99617.87;105841;1257;61262;-69
2024/04/04 01:31:30;;;;;;;5.80;2.70;;;;;;;10.94;49.57;99622.57;105673;1257;65900;-68
2024/04/04 01:33:57;;;;;;;4.50;2.40;;;;;;;10.95;49.43;99620.14;105691;1254;62214;-68
2024/04/04 01:36:24;;;;;;;4.40;2.60;;;;;;;10.97;49.40;99619.74;105250;1259;64106;-68
2024/04/04 01:38:51;;;;;;;5.30;2.80;;;;;;;11.00;49.27;99619.17;105829;1254;61164;-68
2024/04/04 01:41:18;;;;;;;4.30;2.40;;;;;;;11.02;49.26;99618.44;105411;1254;61314;-68
2024/04/04 01:43:45;;;;;;;5.90;2.60;;;;;;;11.04;49.11;99611.59;105665;1253;65719;-68
2024/04/04 01:46:12;;;;;;;4.60;2.40;;;;;;;11.05;48.98;99609.68;105717;1253;61243;-67
2024/04/04 01:48:38;;;;;;;5.40;2.70;;;;;;;11.06;48.85;99613.79;105639;1254;63866;-68
2024/04/04 01:51:05;;;;;;;6.20;2.50;;;;;;;11.06;48.72;99616.23;105638;1256;61202;-67
2024/04/04 01:53:35;;;;;;;4.10;2.50;;;;;;;11.07;48.57;99615.12;105727;1256;61349;-67
2024/04/04 01:56:03;;;;;;;5.30;2.30;;;;;;;11.07;48.59;99622.72;105590;1262;66117;-68
2024/04/04 01:58:30;;;;;;;5.10;2.60;;;;;;;11.07;48.52;99625.70;105677;1257;61332;-67
2024/04/04 02:00:57;;;;;;;5.00;2.20;;;;;;;11.07;48.49;99626.59;105645;1257;64137;-67
2024/04/04 02:03:24;;;;;;;4.50;2.30;;;;;;;11.06;48.48;99628.59;105461;1253;61146;-67
2024/04/04 02:05:51;;;;;;;3.30;2.10;;;;;;;11.05;48.51;99630.98;105632;1254;61369;-70
2024/04/04 02:08:17;;;;;;;4.30;1.90;;;;;;;11.04;48.45;99629.98;105602;1254;65808;-68
2024/04/04 02:10:44;;;;;;;5.80;2.20;;;;;;;11.05;48.35;99628.38;105660;1257;61157;-67
2024/04/04 02:13:11;;;;;;;3.90;1.80;;;;;;;11.05;48.26;99629.46;105567;1253;64149;-67
2024/04/04 02:15:41;;;;;;;6.80;2.20;;;;;;;11.03;48.18;99623.44;105803;1256;61241;-68
2024/04/04 02:18:08;;;;;;;4.50;2.30;;;;;;;11.01;48.00;99621.38;105800;1253;61275;-67
2024/04/04 02:20:35;;;;;;;5.60;2.20;;;;;;;11.00;47.84;99622.64;105622;1259;65710;-67
2024/04/04 02:23:02;;;;;;;4.60;2.40;;;;;;;11.00;47.74;99618.09;105536;1259;61289;-67
2024/04/04 02:25:29;;;;;;;4.60;2.20;;;;;;;10.99;47.71;99617.48;105700;1257;63737;-68
2024/04/04 02:27:56;;;;;;;4.10;2.10;;;;;;;10.97;47.67;99619.77;105333;1253;61338;-70
2024/04/04 02:30:23;;;;;;;5.30;2.20;;;;;;;10.96;47.66;99626.06;105470;1256;61244;-68
2024/04/04 02:32:50;;;;;;;5.20;2.40;;;;;;;10.95;47.61;99624.59;105525;1260;66006;-69
2024/04/04 02:35:18;;;;;;;4.30;2.30;;;;;;;10.93;47.51;99630.69;105826;1254;61224;-70
2024/04/04 02:37:45;;;;;;;4.20;2.00;;;;;;;10.92;47.53;99632.25;105969;1257;63945;-68
2024/04/04 02:40:12;;;;;;;3.90;2.10;;;;;;;10.92;47.40;99627.17;105816;1254;61307;-71
2024/04/04 02:42:39;;;;;;;4.00;2.30;;;;;;;10.91;47.34;99624.24;105636;1255;61264;-69
2024/04/04 02:45:07;;;;;;;4.60;2.10;;;;;;;10.91;47.18;99627.08;105528;1260;66101;-69
2024/04/04 02:47:34;;;;;;;5.00;2.00;;;;;;;10.91;47.16;99624.59;105583;1254;61301;-69
2024/04/04 02:50:01;;;;;;;4.00;2.30;;;;;;;10.91;47.18;99623.73;105649;1256;64058;-68
2024/04/04 02:52:29;;;;;;;4.40;2.30;;;;;;;10.89;47.11;99626.30;105440;1254;61593;-68
2024/04/04 02:54:56;;;;;;;4.60;2.10;;;;;;;10.88;47.06;99629.05;105695;1254;61446;-69
2024/04/04 02:57:24;;;;;;;5.50;2.30;;;;;;;10.86;47.08;99630.98;105525;1258;66154;-68
2024/04/04 02:59:51;;;;;;;4.00;2.20;;;;;;;10.85;47.01;99633.23;105718;1256;61292;-68
2024/04/04 03:02:18;;;;;;;3.90;2.10;;;;;;;10.84;47.08;99635.20;105828;1256;63857;-71
2024/04/04 03:04:45;;;;;;;3.90;2.10;;;;;;;10.84;47.10;99637.88;105651;1253;61296;-68
2024/04/04 03:07:11;;;;;;;6.30;2.10;;;;;;;10.83;47.09;99639.94;105732;1259;63068;-68
2024/04/04 03:09:38;;;;;;;7.30;1.90;;;;;;;10.80;47.07;99638.95;105883;1253;65880;-70
2024/04/04 03:12:06;;;;;;;3.90;2.10;;;;;;;10.77;47.15;99638.33;105545;1259;61324;-69
2024/04/04 03:14:33;;;;;;;4.40;2.00;;;;;;;10.74;47.27;99641.76;105699;1257;63836;-69
2024/04/04 03:17:00;;;;;;;3.50;2.00;;;;;;;10.71;47.39;99637.33;105660;1270;61183;-69
2024/04/04 03:19:27;;;;;;;5.30;2.30;;;;;;;10.67;47.40;99637.14;105474;1257;61231;-69
2024/04/04 03:21:54;;;;;;;5.00;2.30;;;;;;;10.64;47.40;99635.12;105520;1255;66507;-70
2024/04/04 03:24:20;;;;;;;4.30;2.10;;;;;;;10.62;47.46;99635.52;105758;1258;61264;-68
2024/04/04 03:26:47;;;;;;;5.60;2.50;;;;;;;10.62;47.56;99641.74;105680;1259;64026;-70
2024/04/04 03:29:14;;;;;;;7.00;2.20;;;;;;;10.59;47.69;99640.02;105816;1257;61152;-75
2024/04/04 03:31:41;;;;;;;6.20;2.30;;;;;;;10.58;47.71;99639.92;105547;1254;61233;-68
2024/04/04 03:34:08;;;;;;;5.20;2.50;;;;;;;10.58;47.72;99643.29;105702;1259;65866;-69
2024/04/04 03:36:35;;;;;;;4.70;2.00;;;;;;;10.57;47.69;99642.65;105655;1259;61277;-73
2024/04/04 03:39:02;;;;;;;3.40;1.90;;;;;;;10.57;47.74;99643.52;105784;1254;62568;-70
2024/04/04 03:41:28;;;;;;;3.60;1.80;;;;;;;10.57;47.85;99648.07;105494;1254;61237;-69
2024/04/04 03:43:57;;;;;;;4.60;1.70;;;;;;;10.58;47.91;99651.69;105813;1253;61263;-68
2024/04/04 03:46:24;;;;;;;2.90;1.80;;;;;;;10.59;47.95;99650.16;106024;1257;65996;-66
2024/04/04 03:48:50;;;;;;;3.80;1.60;;;;;;;10.61;48.02;99649.83;105785;1260;61311;-69
2024/04/04 03:51:18;;;;;;;3.50;1.60;;;;;;;10.64;48.04;99659.48;105754;1256;61243;-69
2024/04/04 03:53:45;;;;;;;2.70;1.40;;;;;;;10.67;48.00;99660.02;105864;1261;61295;-69
2024/04/04 03:56:12;;;;;;;5.40;1.70;;;;;;;10.73;47.99;99657.24;105760;1256;61361;-71
2024/04/04 03:58:40;;;;;;;4.90;1.50;;;;;;;10.78;47.99;99657.42;105707;1260;66055;-69
2024/04/04 04:01:07;;;;;;;6.60;1.70;;;;;;;10.84;47.93;99658.62;105801;1256;61307;-69
2024/04/04 04:03:34;;;;;;;4.30;1.80;;;;;;;10.91;47.74;99658.58;105857;1255;64662;-68
2024/04/04 04:06:02;;;;;;;6.80;1.90;;;;;;;10.97;47.67;99657.96;105436;1261;61178;-68
2024/04/04 04:08:30;;;;;;;3.80;1.80;;;;;;;11.05;47.58;99654.97;105849;1255;61248;-72
2024/04/04 04:10:57;;;;;;;2.80;1.70;;;;;;;11.12;47.55;99658.34;105656;1260;66062;-68
2024/04/04 04:13:24;;;;;;;5.20;1.60;;;;;;;11.19;47.52;99662.29;105702;1254;61361;-68
2024/04/04 04:15:57;;;;;;;2.90;1.30;;;;;;;11.26;47.46;99656.34;105489;1255;63910;-70
2024/04/04 04:18:25;;;;;;;3.10;1.30;;;;;;;11.34;47.45;99658.05;105687;1254;61244;-68
2024/04/04 04:23:37;;;;;;;3.60;1.80;;;;;;;11.51;47.27;99666.69;105632;1257;65987;-68
2024/04/04 04:26:04;;;;;;;9.70;1.90;;;;;;;11.59;47.11;99667.92;105580;1257;61266;-68
2024/04/04 04:28:33;;;;;;;6.50;2.10;;;;;;;11.66;46.94;99669.11;105505;1257;63879;-69
2024/04/04 04:31:00;;;;;;;5.00;1.90;;;;;;;11.74;46.82;99665.34;105796;1254;61320;-65
2024/04/04 04:33:27;;;;;;;9.20;3.70;;;;;;;11.82;46.56;99665.02;105819;1257;61359;-70
2024/04/04 04:35:55;;;;;;;16.10;4.30;;;;;;;11.89;46.39;99668.03;105857;1254;65803;-66
2024/04/04 04:38:21;;;;;;;12.50;5.40;;;;;;;11.95;46.12;99670.23;105628;1253;61269;-65
2024/04/04 04:40:51;;;;;;;13.80;6.00;;;;;;;12.01;45.99;99674.20;105720;1257;62838;-65
2024/04/04 04:43:18;;;;;;;13.00;5.30;;;;;;;12.08;45.85;99677.52;105857;1254;61363;-65
2024/04/04 04:45:44;;;;;;;10.10;4.70;;;;;;;12.12;45.75;99681.63;105710;1254;61269;-66
2024/04/04 04:48:11;;;;;;;7.90;4.10;;;;;;;12.17;45.68;99684.56;105826;1251;65962;-67
2024/04/04 04:50:39;;;;;;;5.60;3.20;;;;;;;12.20;45.59;99681.36;105754;1257;61324;-66
2024/04/04 04:53:06;;;;;;;4.40;2.30;;;;;;;12.24;45.55;99682.02;105821;1254;64103;-67
2024/04/04 04:55:33;;;;;;;4.10;2.10;;;;;;;12.28;45.46;99685.55;105677;1257;61168;-66
2024/04/04 04:57:59;;;;;;;5.20;1.90;;;;;;;12.34;45.51;99688.33;105934;1255;61256;-65
2024/04/04 05:00:27;;;;;;;3.50;1.50;;;;;;;12.40;45.27;99694.34;106016;1255;65978;-64
2024/04/04 05:02:55;;;;;;;4.10;1.80;;;;;;;12.46;45.15;99702.91;105771;1251;61285;-65
2024/04/04 05:05:22;;;;;;;3.10;1.40;;;;;;;12.51;45.12;99701.98;105553;1254;63889;-66
2024/04/04 05:07:51;;;;;;;3.80;1.50;;;;;;;12.58;45.13;99704.33;105363;1257;61378;-65
2024/04/04 05:10:18;;;;;;;3.60;1.50;;;;;;;12.65;44.90;99703.45;109431;1251;59197;-68
2024/04/04 05:12:44;;;;;;;7.50;1.60;;;;;;;12.74;44.80;99702.45;106760;1251;66591;-66
2024/04/04 05:15:11;;;;;;;4.20;1.70;;;;;;;12.83;44.52;99702.73;105878;1254;61259;-65
2024/04/04 05:17:38;;;;;;;3.00;1.30;;;;;;;12.93;44.43;99699.97;105600;1260;63926;-67
2024/04/04 05:20:05;;;;;;;4.80;1.50;;;;;;;13.03;43.98;99700.08;105846;1257;61625;-65
2024/04/04 05:22:32;;;;;;;7.90;1.70;;;;;;;13.11;43.99;99694.94;105841;1251;61135;-65
2024/04/04 05:24:59;;;;;;;3.60;1.50;;;;;;;13.20;43.96;99699.36;105622;1255;65703;-65
2024/04/04 05:27:26;;;;;;;4.70;1.50;;;;;;;13.29;43.53;99703.59;105904;1256;61319;-68
2024/04/04 05:29:53;;;;;;;3.70;1.40;;;;;;;13.38;43.46;99701.64;106053;1251;64186;-67
2024/04/04 05:32:20;;;;;;;3.70;1.50;;;;;;;13.44;43.33;99702.79;105739;1258;61356;-67
2024/04/04 05:34:50;;;;;;;4.10;1.40;;;;;;;13.47;43.21;99701.73;105669;1254;61263;-66
2024/04/04 05:37:18;;;;;;;3.20;1.40;;;;;;;13.51;43.32;99704.25;105820;1257;66300;-67
2024/04/04 05:39:45;;;;;;;5.60;1.80;;;;;;;13.56;43.35;99707.27;105754;1257;61254;-67
2024/04/04 05:42:12;;;;;;;5.00;2.00;;;;;;;13.60;43.50;99709.08;105786;1259;64023;-66
2024/04/04 05:44:39;;;;;;;6.00;1.60;;;;;;;13.64;43.42;99711.20;105842;1254;61206;-66
2024/04/04 05:47:05;;;;;;;3.00;1.60;;;;;;;13.65;43.50;99709.63;105817;1253;62231;-66
2024/04/04 05:49:33;;;;;;;4.60;1.30;;;;;;;13.65;43.53;99710.90;105860;1253;66050;-66
2024/04/04 05:52:00;;;;;;;3.00;1.30;;;;;;;13.62;43.65;99714.01;105660;1258;61221;-66
2024/04/04 05:54:27;;;;;;;8.50;1.40;;;;;;;13.60;43.75;99715.84;105751;1254;63877;-66
2024/04/04 05:56:54;;;;;;;4.70;1.30;;;;;;;13.57;44.13;99718.20;105587;1253;61244;-66
2024/04/04 05:59:21;;;;;;;2.30;1.10;;;;;;;13.57;44.15;99724.98;105803;1254;63635;-66
2024/04/04 06:01:48;;;;;;;3.50;1.30;;;;;;;13.56;44.28;99731.77;105750;1251;66118;-67
2024/04/04 06:04:15;;;;;;;3.50;1.20;;;;;;;13.58;44.51;99730.35;105717;1251;61314;-66
2024/04/04 06:06:44;;;;;;;3.40;1.30;;;;;;;13.63;44.49;99733.38;105703;1254;64002;-66
2024/04/04 06:09:11;;;;;;;4.80;1.40;;;;;;;13.68;44.49;99729.26;105585;1256;61212;-65
2024/04/04 06:11:39;;;;;;;4.10;1.20;;;;;;;13.73;44.61;99732.71;105622;1256;61247;-66
2024/04/04 06:14:06;;;;;;;4.10;1.40;;;;;;;13.77;44.50;99736.38;105477;1260;67969;-66
2024/04/04 06:16:35;;;;;;;4.90;1.60;;;;;;;13.79;44.63;99739.86;105650;1258;61366;-65
2024/04/04 06:19:02;;;;;;;5.50;1.30;;;;;;;13.81;44.77;99743.27;105792;1251;65840;-66
2024/04/04 06:21:29;;;;;;;2.60;1.40;;;;;;;13.83;44.88;99748.48;105766;1254;61263;-66
2024/04/04 06:23:56;;;;;;;4.90;1.80;;;;;;;13.86;44.78;99747.30;105681;1256;61276;-63
2024/04/04 06:26:26;;;;;;;3.10;1.40;;;;;;;13.90;44.85;99744.41;105611;1254;67486;-65
2024/04/04 06:28:57;;;;;;;3.20;1.30;;;;;;;13.97;45.00;99751.08;105667;1251;67532;-67
2024/04/04 06:31:24;;;;;;;5.60;1.80;;;;;;;14.01;44.73;99755.29;105750;1251;64242;-64
2024/04/04 06:33:51;;;;;;;3.60;1.40;;;;;;;14.02;44.75;99760.63;105844;1251;61227;-64
2024/04/04 06:36:18;;;;;;;3.20;1.40;;;;;;;14.06;44.94;99758.88;105577;1254;61273;-66
2024/04/04 06:38:45;;;;;;;10.40;1.70;;;;;;;14.11;44.99;99765.39;105701;1257;67829;-64
2024/04/04 06:41:13;;;;;;;9.30;1.70;;;;;;;14.16;44.74;99760.38;105651;1254;61279;-65
2024/04/04 06:43:40;;;;;;;4.00;1.60;;;;;;;14.19;44.83;99758.91;105754;1255;65992;-65
2024/04/04 06:46:07;;;;;;;4.50;1.60;;;;;;;14.25;44.83;99768.39;105718;1251;61238;-64
2024/04/04 06:48:40;;;;;;;4.10;1.40;;;;;;;14.33;44.88;99763.08;105648;1253;61282;-64
2024/04/04 06:51:08;;;;;;;4.90;1.60;;;;;;;14.42;44.87;99764.33;105920;1251;66133;-63
2024/04/04 06:53:35;;;;;;;4.20;1.30;;;;;;;14.47;44.86;99766.61;105717;1254;61293;-65
2024/04/04 06:56:03;;;;;;;3.50;1.40;;;;;;;14.52;44.87;99762.90;105765;1256;65602;-66
2024/04/04 06:58:30;;;;;;;4.90;1.60;;;;;;;14.59;44.97;99765.48;105822;1251;61174;-65
2024/04/04 07:00:58;;;;;;;3.50;1.40;;;;;;;14.65;44.53;99769.01;105848;1251;61359;-63
2024/04/04 07:03:25;;;;;;;2.90;1.50;;;;;;;14.66;44.47;99768.90;105864;1255;67835;-63
2024/04/04 07:05:52;;;;;;;3.60;1.70;;;;;;;14.65;44.65;99768.68;105521;1256;61250;-64
2024/04/04 07:08:19;;;;;;;3.30;1.40;;;;;;;14.65;44.70;99772.33;105900;1251;65317;-64
2024/04/04 07:10:46;;;;;;;3.70;1.50;;;;;;;14.69;44.81;99774.91;105705;1251;61381;-64
2024/04/04 07:13:16;;;;;;;3.80;1.70;;;;;;;14.72;44.42;99777.73;105747;1253;61337;-64
2024/04/04 07:15:43;;;;;;;2.60;1.50;;;;;;;14.70;44.21;99779.73;105688;1253;67749;-64
2024/04/04 07:18:10;;;;;;;3.50;1.50;;;;;;;14.70;44.36;99785.78;105920;1256;61234;-68
2024/04/04 07:20:39;;;;;;;3.20;1.40;;;;;;;14.71;44.34;99790.60;105669;1254;65860;-65
2024/04/04 07:23:06;;;;;;;4.20;1.70;;;;;;;14.71;43.94;99793.69;105683;1251;61261;-63
2024/04/04 07:25:33;;;;;;;5.00;1.60;;;;;;;14.67;44.13;99790.02;105815;1251;61231;-65
2024/04/04 07:28:01;;;;;;;3.00;1.30;;;;;;;14.68;44.25;99791.31;105740;1256;76005;-64
2024/04/04 07:30:29;;;;;;;3.80;1.60;;;;;;;14.73;44.06;99795.20;105879;1256;61263;-65
2024/04/04 07:32:57;;;;;;;4.30;1.50;;;;;;;14.80;44.16;99795.13;105847;1251;65652;-63
2024/04/04 07:35:23;;;;;;;6.40;1.70;;;;;;;14.88;43.92;99799.61;105783;1254;61228;-64
2024/04/04 07:37:50;;;;;;;5.60;1.50;;;;;;;14.91;43.69;99801.14;105845;1251;61343;-64
2024/04/04 07:40:17;;;;;;;4.30;1.40;;;;;;;14.90;43.79;99804.70;105899;1251;67881;-65
2024/04/04 07:42:46;;;;;;;4.00;1.30;;;;;;;14.92;43.95;99806.69;105912;1255;61349;-65
2024/04/04 07:45:13;;;;;;;2.70;1.30;;;;;;;14.99;44.17;99805.41;105666;1251;65531;-64
2024/04/04 07:47:40;;;;;;;2.50;1.30;;;;;;;15.09;43.95;99803.23;105704;1254;61308;-64
2024/04/04 07:50:08;;;;;;;5.10;1.50;;;;;;;15.15;42.90;99809.85;105799;1251;61141;-67
2024/04/04 07:52:35;;;;;;;2.20;1.40;;;;;;;15.11;42.74;99810.11;105698;1253;66497;-64
2024/04/04 07:55:03;;;;;;;4.20;1.30;;;;;;;15.07;42.84;99806.85;105818;1251;61340;-64
2024/04/04 07:57:30;;;;;;;4.30;1.30;;;;;;;15.06;43.35;99809.97;105833;1251;65680;-65
2024/04/04 07:59:57;;;;;;;4.20;1.20;;;;;;;15.13;43.52;99804.36;105829;1256;61177;-63
2024/04/04 08:02:26;;;;;;;2.50;1.20;;;;;;;15.24;43.57;99806.77;105751;1256;61429;-64
2024/04/04 08:04:53;;;;;;;2.10;1.20;;;;;;;15.28;42.97;99812.05;105645;1256;67811;-65
2024/04/04 08:07:21;;;;;;;2.00;1.20;;;;;;;15.21;42.76;99815.25;105610;1256;61290;-65
2024/04/04 08:09:48;;;;;;;2.10;1.20;;;;;;;15.14;43.00;99813.14;105805;1256;65943;-63
2024/04/04 08:12:15;;;;;;;1.80;1.10;;;;;;;15.14;43.25;99813.83;105655;1253;61354;-64
2024/04/04 08:14:44;;;;;;;3.80;1.30;;;;;;;15.17;42.89;99815.88;105906;1254;61953;-64
2024/04/04 08:17:11;;;;;;;1.90;0.90;;;;;;;15.21;42.82;99820.36;105827;1256;67607;-63
2024/04/04 08:19:38;;;;;;;2.10;1.00;;;;;;;15.26;41.87;99818.30;105749;1255;66234;-65
2024/04/04 08:22:07;;;;;;;1.50;0.80;;;;;;;15.30;42.11;99818.57;105940;1253;65773;-63
2024/04/04 08:24:35;;;;;;;5.10;1.40;;;;;;;15.38;42.20;99823.82;105780;1253;61339;-64
2024/04/04 08:27:02;;;;;;;2.30;1.00;;;;;;;15.51;41.95;99825.63;105513;1253;61343;-63
2024/04/04 08:29:30;;;;;;;1.90;1.00;;;;;;;15.53;41.20;99822.23;105747;1251;67697;-64
2024/04/04 08:31:57;;;;;;;2.10;0.80;;;;;;;15.43;41.07;99818.73;105789;1251;61823;-66
2024/04/04 08:34:29;;;;;;;1.80;1.00;;;;;;;15.35;41.24;99823.10;106158;1252;73034;-67
2024/04/04 08:36:56;;;;;;;2.50;0.80;;;;;;;15.31;41.80;99824.16;106630;1254;61323;-67
2024/04/04 08:39:24;;;;;;;4.20;1.10;;;;;;;15.31;41.81;99818.93;105950;1256;61114;-66
2024/04/04 08:41:51;;;;;;;1.70;0.90;;;;;;;15.37;41.33;99824.09;105667;1257;67712;-68
2024/04/04 08:44:18;;;;;;;2.10;0.90;;;;;;;15.40;40.90;99816.73;105730;1254;61293;-68
2024/04/04 08:46:45;;;;;;;1.70;0.90;;;;;;;15.41;40.86;99818.40;105908;1257;66272;-68
2024/04/04 08:49:12;;;;;;;2.50;0.90;;;;;;;15.41;40.39;99830.98;105914;1251;61276;-68
2024/04/04 08:51:39;;;;;;;1.00;0.60;;;;;;;15.38;40.00;99835.68;105670;1251;61370;-70
2024/04/04 08:54:06;;;;;;;1.20;0.80;;;;;;;15.35;39.45;99845.78;105525;1257;67738;-67
2024/04/04 08:56:33;;;;;;;1.60;0.70;;;;;;;15.27;39.38;99834.63;105680;1253;61340;-68
2024/04/04 08:59:01;;;;;;;1.60;0.70;;;;;;;15.23;39.21;99837.42;105794;1254;70678;-64
2024/04/04 09:01:28;;;;;;;1.20;0.80;;;;;;;15.21;38.92;99837.02;105837;1251;61175;-68
2024/04/04 09:04:02;;;;;;;1.20;0.70;;;;;;;15.28;39.29;99835.40;105550;1254;61422;-66
2024/04/04 09:06:29;;;;;;;1.70;0.80;;;;;;;15.40;38.60;99840.59;105659;1251;75924;-65
2024/04/04 09:08:58;;;;;;;1.70;0.70;;;;;;;15.46;38.86;99841.77;105659;1257;61452;-66
2024/04/04 09:11:26;;;;;;;2.30;0.80;;;;;;;15.53;39.12;99836.86;105657;1259;65882;-66
2024/04/04 09:14:09;;;;;;;3.30;0.80;;;;;;;15.59;39.22;99838.11;105762;1253;61321;-68
2024/04/04 09:16:37;;;;;;;2.00;0.70;;;;;;;15.61;39.18;99840.23;105895;1251;61232;-64
2024/04/04 09:19:14;;;;;;;2.50;1.10;;;;;;;15.55;39.42;99838.03;105538;1260;67924;-65
2024/04/04 09:21:44;;;;;;;2.00;1.00;;;;;;;15.46;39.90;99835.65;105678;1251;61264;-67
2024/04/04 09:24:15;;;;;;;1.10;0.80;;;;;;;15.51;40.12;99835.11;105722;1257;65599;-64
2024/04/04 09:26:46;;;;;;;1.20;0.80;;;;;;;15.65;40.19;99839.38;105762;1256;62099;-64
2024/04/04 09:29:14;;;;;;;3.30;0.90;;;;;;;15.83;40.31;99839.71;105709;1257;61110;-66
2024/04/04 09:31:41;;;;;;;2.70;0.90;;;;;;;16.08;40.20;99835.66;105922;1257;67616;-68
2024/04/04 09:34:10;;;;;;;4.20;0.90;;;;;;;16.32;39.37;99830.20;105834;1255;61199;-67
2024/04/04 09:36:40;;;;;;;2.40;1.00;;;;;;;16.45;38.72;99837.74;105891;1253;65604;-67
2024/04/04 09:39:09;;;;;;;2.00;1.00;;;;;;;16.48;38.14;99836.90;105581;1258;61356;-67
2024/04/04 09:41:39;;;;;;;3.00;1.10;;;;;;;16.52;38.40;99834.45;105697;1251;61263;-67
2024/04/04 09:44:06;;;;;;;0.80;0.70;;;;;;;16.64;37.89;99831.87;105317;1260;67813;-66
2024/04/04 09:46:35;;;;;;;2.50;1.20;;;;;;;16.71;37.44;99840.44;105892;1253;61336;-66
2024/04/04 09:49:02;;;;;;;2.60;1.10;;;;;;;16.71;37.30;99844.98;105619;1254;74118;-70
2024/04/04 09:51:29;;;;;;;1.60;1.20;;;;;;;16.66;36.98;99859.58;105888;1253;61156;-68
2024/04/04 09:53:57;;;;;;;1.80;1.10;;;;;;;16.57;37.12;99855.39;105743;1253;61362;-69
2024/04/04 09:56:24;;;;;;;2.90;0.90;;;;;;;16.58;37.28;99848.69;105904;1253;67822;-66
2024/04/04 09:58:51;;;;;;;1.70;0.90;;;;;;;16.76;37.56;99851.70;105784;1254;61334;-64
2024/04/04 10:01:22;;;;;;;2.70;1.10;;;;;;;17.02;36.86;99854.73;105802;1253;65878;-64
2024/04/04 10:03:52;;;;;;;3.70;1.00;;;;;;;17.21;36.78;99854.05;105721;1251;61233;-64
2024/04/04 10:06:36;;;;;;;1.20;1.00;;;;;;;17.40;36.74;99863.52;105687;1253;61215;-64
2024/04/04 10:09:17;;;;;;;1.90;1.00;;;;;;;17.55;35.53;99861.80;105696;1255;67790;-64
2024/04/04 10:11:44;;;;;;;1.30;1.10;;;;;;;17.59;35.65;99869.19;105660;1254;61352;-65
2024/04/04 10:14:21;;;;;;;3.10;1.00;;;;;;;17.59;34.91;99871.59;105658;1253;65772;-64
2024/04/04 10:16:55;;;;;;;1.00;0.90;;;;;;;17.49;35.01;99864.75;105682;1253;61253;-65
2024/04/04 10:19:26;;;;;;;1.20;1.00;;;;;;;17.53;35.01;99873.48;105291;1253;338415;-64
2024/04/04 10:21:53;;;;;;;2.30;1.10;;;;;;;17.64;34.88;99872.66;105670;1258;67871;-65
2024/04/04 10:24:27;;;;;;;1.50;1.00;;;;;;;17.71;34.90;99883.23;105936;1256;61344;-67
2024/04/04 10:26:54;;;;;;;;;;;;;;;17.72;34.19;99900.02;105680;1253;65672;-64
2024/04/04 10:29:22;;;;;;;2.10;0.80;;;;;;;17.60;34.14;99905.83;105688;1253;61349;-69
2024/04/04 10:32:03;;;;;;;2.40;1.00;;;;;;;17.50;33.98;99896.36;105853;1253;61289;-65
2024/04/04 10:34:31;;;;;;;1.60;0.80;;;;;;;17.37;34.16;99894.27;105634;1254;67880;-64
2024/04/04 10:36:58;;;;;;;0.80;0.70;;;;;;;17.24;34.05;99904.58;105712;1258;61372;-67
2024/04/04 10:39:25;;;;;;;3.80;0.70;;;;;;;17.14;34.28;99898.23;105941;1253;65891;-66
2024/04/04 10:41:56;;;;;;;2.30;0.70;;;;;;;17.13;34.50;99894.92;106005;1254;61368;-66
2024/04/04 10:44:25;;;;;;;1.00;0.70;;;;;;;17.22;34.39;99902.41;105687;1251;61298;-67
2024/04/04 10:46:53;;;;;;;2.20;0.90;;;;;;;17.37;34.17;99900.55;105768;1253;67644;-65
2024/04/04 10:49:26;;;;;;;1.30;0.60;;;;;;;17.47;33.77;99909.36;105898;1253;67499;-65
2024/04/04 10:51:54;;;;;;;2.60;0.80;;;;;;;17.51;33.75;99901.79;105756;1254;63597;-65
2024/04/04 10:54:21;;;;;;;1.90;0.60;;;;;;;17.58;33.71;99896.98;105756;1253;61294;-64
2024/04/04 10:56:48;;;;;;;1.70;0.80;;;;;;;17.66;33.87;99899.11;105589;1251;61279;-69
2024/04/04 10:59:20;;;;;;;1.70;0.80;;;;;;;17.82;33.72;99903.75;105662;1251;67806;-65
2024/04/04 11:01:48;;;;;;;1.70;0.70;;;;;;;17.87;32.76;99907.18;105657;1251;61284;-65
2024/04/04 11:04:16;;;;;;;1.30;0.70;;;;;;;17.76;32.90;99904.02;105647;1253;65568;-66
2024/04/04 11:06:43;;;;;;;1.70;0.80;;;;;;;17.72;33.09;99906.27;105742;1251;61344;-66
2024/04/04 11:09:11;;;;;;;1.30;0.60;;;;;;;17.70;33.34;99903.10;105696;1251;61449;-66
2024/04/04 11:11:39;;;;;;;1.00;0.80;;;;;;;17.75;33.44;99899.20;105675;1257;67784;-65
2024/04/04 11:14:05;;;;;;;2.50;0.80;;;;;;;17.83;32.98;99908.95;105906;1251;61838;-65
2024/04/04 11:16:32;;;;;;;1.30;0.70;;;;;;;17.93;33.32;99904.85;105649;1252;65915;-65
2024/04/04 11:18:59;;;;;;;2.20;0.80;;;;;;;18.22;33.52;99906.58;105509;1251;61832;-66
2024/04/04 11:21:26;;;;;;;1.10;0.70;;;;;;;18.50;33.27;99910.20;105875;1255;61277;-66
2024/04/04 11:23:53;;;;;;;1.10;0.80;;;;;;;18.78;32.79;99905.29;105682;1253;67785;-66
2024/04/04 11:26:22;;;;;;;1.00;0.80;;;;;;;19.03;32.36;99914.20;105953;1256;68508;-66
2024/04/04 11:28:49;;;;;;;2.20;0.70;;;;;;;19.14;32.20;99916.92;106008;1251;65855;-65